Time;durP1;ratioP1;P1;durP2;ratioP2;P2;SDS_P1;SDS_P2;PMS_P1;PMS_P2;Temp;Humidity;BMP_temperature;BMP_pressure;BME280_temperature;BME280_humidity;BME280_pressure;Samples;Min_cycle;Max_cycle;Signal;HPM_P1;HPM_P2
2022/09/09 00:00:56;;;;;;;2.17;1.97;;;15.50;99.90;;;16.32;100.00;97637.84;4958273;28;20499;-84
2022/09/09 00:03:31;;;;;;;2.37;1.50;;;15.50;99.90;;;16.32;100.00;97639.69;4958940;28;20475;-84
2022/09/09 00:06:11;;;;;;;5.70;1.70;;;15.50;99.90;;;16.33;100.00;97642.09;4956268;28;20527;-85
2022/09/09 00:08:57;;;;;;;2.00;1.43;;;15.50;99.90;;;16.32;100.00;97634.41;4958747;28;20552;-84
2022/09/09 00:11:36;;;;;;;3.27;1.70;;;15.50;99.90;;;16.29;100.00;97627.78;4959052;28;20519;-84
2022/09/09 00:14:19;;;;;;;6.63;1.53;;;15.50;99.90;;;16.20;100.00;97623.91;4961063;28;20494;-84
2022/09/09 00:16:56;;;;;;;1.77;1.47;;;15.50;99.90;;;16.13;100.00;97625.06;4961451;28;20464;-84
2022/09/09 00:19:34;;;;;;;1.90;1.80;;;15.50;99.90;;;16.06;100.00;97619.91;4960224;28;20473;-84
2022/09/09 00:22:17;;;;;;;2.70;1.43;;;15.40;99.90;;;16.03;100.00;97617.75;4959914;28;20472;-84
2022/09/09 00:24:50;;;;;;;3.30;1.50;;;15.40;99.90;;;16.03;100.00;97626.47;4959665;28;20475;-84
2022/09/09 00:27:31;;;;;;;4.17;2.03;;;15.30;99.90;;;16.00;100.00;97620.84;4961203;28;20557;-84
2022/09/09 00:30:16;;;;;;;3.93;1.83;;;15.30;99.90;;;15.97;100.00;97616.81;4961397;28;20501;-84
2022/09/09 00:32:47;;;;;;;5.33;1.90;;;15.30;99.90;;;15.92;100.00;97615.91;4960996;28;20928;-84
2022/09/09 00:35:23;;;;;;;6.83;1.80;;;15.20;99.90;;;15.92;100.00;97618.56;4964403;28;20848;-84
2022/09/09 00:38:33;;;;;;;4.33;1.83;;;15.20;99.90;;;15.93;100.00;97617.53;4962847;28;20456;-84
2022/09/09 00:41:12;;;;;;;6.60;1.63;;;15.10;99.90;;;15.93;100.00;97623.56;4958189;28;20464;-85
2022/09/09 00:43:42;;;;;;;2.07;1.60;;;15.10;99.90;;;15.96;100.00;97624.97;4960232;28;20916;-84
2022/09/09 00:46:54;;;;;;;3.13;1.90;;;15.10;99.90;;;15.99;100.00;97608.69;4957957;28;20456;-83
2022/09/09 00:49:41;;;;;;;5.10;1.90;;;15.20;99.90;;;16.02;100.00;97613.50;4915990;29;20557;-84
2022/09/09 00:52:29;;;;;;;2.03;1.60;;;15.20;99.90;;;16.05;100.00;97602.47;4915499;29;20470;-84
2022/09/09 00:55:13;;;;;;;3.67;1.93;;;15.20;99.90;;;16.06;100.00;97609.38;4950044;28;20508;-84
2022/09/09 00:57:42;;;;;;;2.97;1.70;;;15.20;99.90;;;16.06;100.00;97612.00;4962685;28;20518;-84
2022/09/09 01:00:23;;;;;;;5.23;1.77;;;15.30;99.90;;;16.06;100.00;97604.09;4962078;28;20463;-84
2022/09/09 01:03:20;;;;;;;2.60;1.93;;;15.30;99.90;;;16.01;100.00;97612.69;4959033;28;20465;-83
2022/09/09 01:06:03;;;;;;;6.93;2.00;;;15.30;99.90;;;16.01;100.00;97619.78;4963468;28;20480;-84
2022/09/09 01:08:57;;;;;;;3.63;2.00;;;15.20;99.90;;;16.02;100.00;97622.22;4961805;28;20503;-84
2022/09/09 01:11:34;;;;;;;3.97;1.70;;;15.20;99.90;;;15.95;100.00;97618.91;4961702;28;20481;-84
2022/09/09 01:14:18;;;;;;;3.83;1.67;;;15.20;99.90;;;15.90;100.00;97618.78;4962279;28;21210;-84
2022/09/09 01:16:49;;;;;;;2.63;1.77;;;15.10;99.90;;;15.86;100.00;97630.81;4965120;28;20515;-84
2022/09/09 01:19:36;;;;;;;6.40;1.63;;;15.00;99.90;;;15.81;100.00;97627.28;4961986;28;20473;-84
2022/09/09 01:22:23;;;;;;;4.23;1.83;;;15.00;99.90;;;15.80;100.00;97629.09;4958355;28;20474;-84
2022/09/09 01:25:25;;;;;;;7.93;1.80;;;15.00;99.90;;;15.82;100.00;97628.88;4963097;28;20458;-84
2022/09/09 01:28:01;;;;;;;2.10;1.90;;;15.00;99.90;;;15.81;100.00;97622.00;4964220;28;20927;-84
2022/09/09 01:30:32;;;;;;;5.03;1.60;;;15.00;99.90;;;15.80;100.00;97620.38;4963024;28;20464;-84
2022/09/09 01:33:03;;;;;;;2.10;1.70;;;14.90;99.90;;;15.80;100.00;97623.03;4960842;28;20990;-84
2022/09/09 01:35:46;;;;;;;2.40;1.50;;;15.00;99.90;;;15.82;100.00;97629.69;4963407;28;20501;-84
2022/09/09 01:38:16;;;;;;;4.63;1.77;;;15.00;99.90;;;15.75;100.00;97625.56;4961431;28;20471;-84
2022/09/09 01:40:45;;;;;;;2.87;2.00;;;15.00;99.90;;;15.76;100.00;97633.22;4962644;28;20465;-84
2022/09/09 01:43:17;;;;;;;2.97;1.97;;;15.00;99.90;;;15.77;100.00;97634.03;4964402;28;20825;-84
2022/09/09 01:45:49;;;;;;;7.40;1.73;;;15.00;99.90;;;15.78;100.00;97630.38;4961060;28;20487;-84
2022/09/09 01:48:19;;;;;;;6.57;1.77;;;15.00;99.90;;;15.81;100.00;97633.34;4961636;28;21349;-84
2022/09/09 01:50:48;;;;;;;7.20;1.57;;;15.00;99.90;;;15.81;100.00;97635.19;4963571;28;20468;-84
2022/09/09 01:53:19;;;;;;;2.73;1.80;;;15.00;99.90;;;15.81;100.00;97635.19;4963431;28;20560;-84
2022/09/09 01:56:03;;;;;;;2.13;1.30;;;15.10;99.90;;;15.80;100.00;97636.22;4960779;28;20500;-84
2022/09/09 01:58:53;;;;;;;2.50;1.57;;;15.00;99.90;;;15.79;100.00;97640.66;4962217;28;20496;-83
2022/09/09 02:01:36;;;;;;;2.97;2.20;;;15.00;99.90;;;15.84;100.00;97632.88;4962449;28;20571;-84
2022/09/09 02:04:24;;;;;;;3.50;2.00;;;15.00;99.90;;;15.88;100.00;97620.03;4959114;28;20524;-83
2022/09/09 02:06:58;;;;;;;3.10;1.77;;;15.10;99.90;;;15.87;100.00;97626.34;4961516;28;20461;-84
2022/09/09 02:09:31;;;;;;;3.90;1.70;;;15.10;99.90;;;15.89;100.00;97629.56;4964160;28;20461;-84
2022/09/09 02:12:15;;;;;;;3.47;1.60;;;15.10;99.90;;;15.91;100.00;97620.38;4961013;28;20584;-84
2022/09/09 02:14:56;;;;;;;3.60;1.57;;;15.10;99.90;;;15.91;100.00;97622.22;4959819;28;21214;-84
2022/09/09 02:17:34;;;;;;;4.77;1.83;;;15.10;99.90;;;15.91;100.00;97612.47;4964273;28;20552;-84
2022/09/09 02:20:09;;;;;;;4.80;1.77;;;15.10;99.90;;;15.96;100.00;97603.88;4962194;28;20538;-84
2022/09/09 02:22:44;;;;;;;4.37;1.57;;;15.10;99.90;;;15.99;100.00;97598.94;4961160;28;20990;-83
2022/09/09 02:25:20;;;;;;;3.83;1.30;;;15.10;99.90;;;15.97;100.00;97594.91;4962345;28;20476;-84
2022/09/09 02:27:52;;;;;;;3.63;1.63;;;15.10;99.90;;;15.96;100.00;97601.25;4962978;28;20568;-84
2022/09/09 02:30:22;;;;;;;4.20;2.00;;;15.20;99.90;;;15.94;100.00;97588.28;4961053;28;20488;-84
2022/09/09 02:32:57;;;;;;;3.10;1.50;;;15.20;99.90;;;15.93;100.00;97594.56;4958842;28;20496;-84
2022/09/09 02:35:30;;;;;;;4.63;1.83;;;15.20;99.90;;;15.94;100.00;97587.47;4960711;28;20494;-84
2022/09/09 02:38:07;;;;;;;2.47;1.60;;;15.20;99.90;;;15.93;100.00;97593.78;4960166;28;20473;-84
2022/09/09 02:40:36;;;;;;;1.43;1.30;;;15.20;99.90;;;15.89;100.00;97605.84;4959287;28;20519;-84
2022/09/09 02:43:06;;;;;;;2.10;1.43;;;15.20;99.90;;;15.91;100.00;97606.38;4960714;28;20581;-85
2022/09/09 02:45:48;;;;;;;4.40;1.30;;;15.10;99.90;;;15.93;100.00;97605.13;4959356;28;20559;-84
2022/09/09 02:48:35;;;;;;;5.20;1.40;;;15.20;99.90;;;15.93;100.00;97606.97;4958653;28;20856;-85
2022/09/09 02:51:15;;;;;;;2.00;1.37;;;15.20;99.90;;;15.93;100.00;97612.25;4963211;28;20531;-85
2022/09/09 02:53:55;;;;;;;3.27;2.40;;;15.20;99.90;;;15.98;100.00;97620.25;4959518;28;20555;-85
2022/09/09 02:56:33;;;;;;;3.20;1.60;;;15.20;99.90;;;16.00;100.00;97626.13;4960657;28;20507;-84
2022/09/09 02:59:05;;;;;;;10.80;2.50;;;15.20;99.90;;;16.02;100.00;97626.69;4959682;28;20467;-83
2022/09/09 03:01:36;;;;;;;2.37;1.63;;;15.20;99.90;;;16.05;100.00;97618.31;4957847;28;20469;-84
2022/09/09 03:04:06;;;;;;;7.50;1.93;;;15.20;99.90;;;16.05;100.00;97618.31;4960015;28;20558;-89
2022/09/09 03:06:35;;;;;;;21.27;12.00;;;15.20;99.90;;;16.06;100.00;97604.88;4969061;28;20971;-84
2022/09/09 03:09:04;;;;;;;5.43;1.87;;;15.30;99.90;;;16.06;100.00;97609.38;4958990;28;20819;-84
2022/09/09 03:11:33;;;;;;;5.43;1.83;;;15.30;99.90;;;16.07;100.00;97611.75;4960079;28;20476;-84
2022/09/09 03:14:04;;;;;;;8.13;2.30;;;15.30;99.90;;;16.09;100.00;97612.34;4961567;28;20486;-84
2022/09/09 03:16:33;;;;;;;4.83;1.77;;;15.30;99.90;;;16.08;100.00;97612.56;4958716;28;20489;-84
2022/09/09 03:19:03;;;;;;;5.23;1.60;;;15.30;99.90;;;16.09;100.00;97607.06;4963278;28;20465;-86
2022/09/09 03:21:32;;;;;;;7.00;3.37;;;15.30;99.90;;;16.10;100.00;97599.94;4959386;28;20839;-83
2022/09/09 03:24:03;;;;;;;3.87;2.00;;;15.30;99.90;;;16.13;100.00;97614.50;4958166;28;20899;-84
2022/09/09 03:26:31;;;;;;;2.90;1.90;;;15.40;99.90;;;16.11;100.00;97601.53;4961577;28;20475;-83
2022/09/09 03:29:01;;;;;;;6.37;2.57;;;15.40;99.90;;;16.14;100.00;97606.34;4961943;28;20894;-85
2022/09/09 03:31:31;;;;;;;4.07;1.97;;;15.40;99.90;;;16.12;100.00;97597.88;4956187;28;20469;-84
2022/09/09 03:34:00;;;;;;;8.00;1.77;;;15.40;99.90;;;16.11;100.00;97596.25;4960540;28;20476;-84
2022/09/09 03:36:30;;;;;;;6.13;1.53;;;15.40;99.90;;;16.12;100.00;97597.88;4961835;28;20600;-86
2022/09/09 03:39:00;;;;;;;6.20;2.13;;;15.30;99.90;;;16.10;100.00;97605.22;4958666;28;20469;-83
2022/09/09 03:41:28;;;;;;;6.73;1.90;;;15.40;99.90;;;16.13;100.00;97610.03;4958642;28;21229;-84
2022/09/09 03:43:57;;;;;;;4.67;2.10;;;15.40;99.90;;;16.15;100.00;97607.16;4962438;28;20543;-83
2022/09/09 03:46:27;;;;;;;3.43;1.80;;;15.40;99.90;;;16.19;100.00;97606.47;4960424;28;20485;-84
2022/09/09 03:48:56;;;;;;;8.33;1.90;;;15.30;99.90;;;16.19;100.00;97609.09;4959738;28;20540;-84
2022/09/09 03:51:25;;;;;;;4.03;1.50;;;15.30;99.90;;;16.19;100.00;97611.72;4960000;28;20546;-84
2022/09/09 03:53:56;;;;;;;8.60;1.50;;;15.40;99.90;;;16.22;100.00;97613.91;4971167;28;20947;-84
2022/09/09 03:56:25;;;;;;;4.40;1.60;;;15.40;99.90;;;16.22;100.00;97608.63;4973373;28;20551;-85
2022/09/09 03:58:53;;;;;;;7.00;2.30;;;15.40;99.90;;;16.26;100.00;97604.50;4968494;28;20468;-84
2022/09/09 04:01:22;;;;;;;6.17;2.07;;;15.40;99.90;;;16.27;100.00;97605.28;4972368;28;20457;-84
2022/09/09 04:03:52;;;;;;;3.93;1.60;;;15.40;99.90;;;16.27;100.00;97600.81;4971022;28;20476;-84
2022/09/09 04:06:21;;;;;;;2.80;1.70;;;15.40;99.90;;;16.28;100.00;97607.69;4969561;28;20560;-84
2022/09/09 04:08:50;;;;;;;3.40;1.67;;;15.40;99.90;;;16.29;100.00;97603.22;4966183;28;21170;-89
2022/09/09 04:11:20;;;;;;;12.33;2.80;;;15.50;99.90;;;16.28;100.00;97599.75;4962292;28;20580;-82
2022/09/09 04:13:50;;;;;;;3.30;2.20;;;15.60;99.90;;;16.32;100.00;97608.03;4958797;28;20493;-85
2022/09/09 04:16:19;;;;;;;8.73;1.70;;;15.50;99.90;;;16.30;100.00;97605.63;4961214;28;20501;-84
2022/09/09 04:18:49;;;;;;;3.87;1.70;;;15.60;99.90;;;16.31;100.00;97607.25;4960917;28;20555;-84
2022/09/09 04:21:18;;;;;;;2.63;1.90;;;15.50;99.90;;;16.33;100.00;97612.28;4963366;28;20567;-84
2022/09/09 04:23:47;;;;;;;1.80;1.40;;;15.50;99.90;;;16.30;100.00;97615.38;4966972;28;20537;-84
2022/09/09 04:26:16;;;;;;;3.33;1.97;;;15.50;99.90;;;16.29;100.00;97613.78;4965044;28;20460;-87
2022/09/09 04:28:46;;;;;;;2.20;1.70;;;15.50;99.90;;;16.27;100.00;97615.84;4960818;28;20461;-84
2022/09/09 04:31:21;;;;;;;4.10;1.70;;;15.40;99.90;;;16.23;100.00;97610.25;4964856;28;20449;-84
2022/09/09 04:33:50;;;;;;;3.67;1.70;;;15.40;99.90;;;16.22;100.00;97619.19;4963056;28;20441;-84
2022/09/09 04:36:20;;;;;;;3.43;1.70;;;15.40;99.90;;;16.19;100.00;97617.00;4964095;28;20521;-84
2022/09/09 04:38:49;;;;;;;9.27;1.50;;;15.40;99.90;;;16.20;100.00;97616.00;4965447;28;20457;-85
2022/09/09 04:41:18;;;;;;;6.10;2.03;;;15.30;99.90;;;16.20;100.00;97604.63;4966733;28;20881;-84
2022/09/09 04:43:48;;;;;;;9.63;2.60;;;15.30;99.90;;;16.15;100.00;97615.88;4966527;28;20476;-85
2022/09/09 04:46:17;;;;;;;7.57;1.90;;;15.40;99.90;;;16.17;100.00;97613.00;4966092;28;20492;-86
2022/09/09 04:48:46;;;;;;;6.63;2.53;;;15.30;99.90;;;16.15;100.00;97623.78;4966889;28;20523;-85
2022/09/09 04:51:16;;;;;;;3.50;1.80;;;15.30;99.90;;;16.11;100.00;97622.63;4966821;28;20461;-85
2022/09/09 04:53:45;;;;;;;13.90;2.30;;;15.30;99.90;;;16.10;100.00;97626.34;4966531;28;20452;-85
2022/09/09 04:56:18;;;;;;;5.20;1.93;;;15.30;99.90;;;16.11;100.00;97620.00;4967088;28;20554;-85
2022/09/09 04:58:48;;;;;;;7.90;2.07;;;15.30;99.90;;;16.12;100.00;97616.34;4965912;28;20476;-85
2022/09/09 05:01:19;;;;;;;4.77;1.83;;;15.30;99.90;;;16.06;100.00;97617.28;4965778;28;20452;-85
2022/09/09 05:03:48;;;;;;;5.00;1.70;;;15.30;99.90;;;16.06;100.00;97626.00;4969867;28;21274;-86
2022/09/09 05:06:21;;;;;;;4.03;2.10;;;15.20;99.90;;;16.07;100.00;97624.13;4969986;28;20512;-85
2022/09/09 05:08:50;;;;;;;7.97;2.17;;;15.20;99.90;;;16.06;100.00;97617.28;4979282;28;20457;-85
2022/09/09 05:11:23;;;;;;;2.20;1.60;;;15.10;99.90;;;16.02;100.00;97624.03;4978678;28;20834;-85
2022/09/09 05:13:56;;;;;;;6.13;1.70;;;15.20;99.90;;;16.03;100.00;97625.66;4980492;28;20457;-85
2022/09/09 05:16:25;;;;;;;4.37;1.93;;;15.20;99.90;;;16.01;100.00;97622.44;4981113;28;20558;-85
2022/09/09 05:18:54;;;;;;;3.40;2.00;;;15.20;99.90;;;16.02;100.00;97618.78;4976704;28;20468;-86
2022/09/09 05:21:26;;;;;;;6.23;2.10;;;15.20;99.90;;;16.05;100.00;97626.22;4976009;28;20460;-85
2022/09/09 05:23:54;;;;;;;4.60;2.03;;;15.20;99.90;;;16.05;100.00;97636.75;4971442;28;20534;-85
2022/09/09 05:26:24;;;;;;;11.17;2.10;;;15.20;99.90;;;16.10;100.00;97636.88;4965825;28;20552;-85
2022/09/09 05:28:54;;;;;;;4.83;2.07;;;15.20;99.90;;;16.12;100.00;97645.34;4963168;28;20509;-85
2022/09/09 05:31:25;;;;;;;3.97;2.20;;;15.30;99.90;;;16.13;100.00;97639.06;4964285;28;20467;-85
2022/09/09 05:33:55;;;;;;;6.50;1.87;;;15.30;99.90;;;16.15;100.00;97647.53;4964465;28;20485;-85
2022/09/09 05:36:24;;;;;;;6.13;1.70;;;15.30;99.90;;;16.18;100.00;97648.88;4964919;28;20446;-85
2022/09/09 05:38:54;;;;;;;7.90;1.90;;;15.30;99.90;;;16.18;100.00;97654.16;4964254;28;20484;-84
2022/09/09 05:41:23;;;;;;;10.33;2.10;;;15.40;99.90;;;16.22;100.00;97645.56;4963362;28;20449;-86
2022/09/09 05:43:53;;;;;;;12.27;2.53;;;15.30;99.90;;;16.24;100.00;97658.53;4964135;28;21067;-85
2022/09/09 05:46:24;;;;;;;9.67;2.57;;;15.40;99.90;;;16.23;100.00;97652.47;4964209;28;20569;-85
2022/09/09 05:48:54;;;;;;;4.97;1.90;;;15.40;99.90;;;16.24;100.00;97654.06;4962583;28;20450;-85
2022/09/09 05:51:26;;;;;;;11.83;2.40;;;15.40;99.90;;;16.28;100.00;97663.09;4963148;28;20880;-85
2022/09/09 05:53:58;;;;;;;12.50;2.60;;;15.40;99.90;;;16.25;100.00;97655.66;4963130;28;20509;-85
2022/09/09 05:56:29;;;;;;;6.43;2.30;;;15.50;99.90;;;16.28;100.00;97657.81;4964309;28;20500;-85
2022/09/09 05:58:59;;;;;;;6.67;2.10;;;15.50;99.90;;;16.32;100.00;97661.59;4964018;28;20505;-85
2022/09/09 06:01:31;;;;;;;7.03;2.10;;;15.60;99.90;;;16.36;100.00;97670.66;4964827;28;20461;-85
2022/09/09 06:04:00;;;;;;;4.60;2.37;;;15.60;99.90;;;16.39;100.00;97666.75;4970911;28;20453;-85
2022/09/09 06:06:36;;;;;;;10.80;2.60;;;15.60;99.90;;;16.41;100.00;97665.50;4969716;28;20872;-85
2022/09/09 06:09:09;;;;;;;3.57;1.77;;;15.60;99.90;;;16.44;100.00;97665.03;4969629;28;20829;-85
2022/09/09 06:11:40;;;;;;;12.33;2.57;;;15.60;99.90;;;16.47;100.00;97659.28;4963853;28;20516;-85
2022/09/09 06:14:11;;;;;;;4.87;2.10;;;15.60;99.90;;;16.49;100.00;97657.19;4964779;28;20492;-84
2022/09/09 06:16:42;;;;;;;10.63;2.80;;;15.70;99.90;;;16.53;100.00;97658.34;4963594;28;20478;-84
2022/09/09 06:19:12;;;;;;;4.93;2.17;;;15.80;99.90;;;16.55;100.00;97656.31;4964580;28;20454;-85
2022/09/09 06:21:40;;;;;;;9.60;2.10;;;15.80;99.90;;;16.58;100.00;97653.22;4963389;28;20561;-85
2022/09/09 06:24:10;;;;;;;7.90;2.10;;;15.90;99.90;;;16.62;100.00;97647.44;4966213;28;21021;-85
2022/09/09 06:26:41;;;;;;;5.40;2.10;;;15.90;99.90;;;16.66;100.00;97651.22;4979414;28;20565;-85
2022/09/09 06:29:12;;;;;;;6.53;2.10;;;15.80;99.90;;;16.69;100.00;97640.19;4974504;28;20469;-85
2022/09/09 06:31:41;;;;;;;2.17;1.90;;;16.00;99.90;;;16.71;100.00;97649.47;4962647;28;20536;-84
2022/09/09 06:34:10;;;;;;;8.00;2.30;;;16.00;99.90;;;16.73;100.00;97650.03;4963610;28;20467;-85
2022/09/09 06:36:40;;;;;;;6.10;2.30;;;16.10;99.90;;;16.76;100.00;97646.94;4963146;28;20444;-85
2022/09/09 06:39:11;;;;;;;9.70;2.10;;;16.00;99.90;;;16.78;100.00;97651.97;4961910;28;20591;-85
2022/09/09 06:41:43;;;;;;;4.00;2.30;;;16.00;99.90;;;16.79;100.00;97653.59;4964024;28;20490;-85
2022/09/09 06:44:13;;;;;;;3.47;2.30;;;16.10;99.90;;;16.82;100.00;97650.47;4963790;28;20457;-85
2022/09/09 06:46:42;;;;;;;11.13;2.57;;;16.10;99.90;;;16.84;100.00;97649.19;4963688;28;21014;-85
2022/09/09 06:49:11;;;;;;;9.10;2.30;;;16.20;99.90;;;16.86;100.00;97648.97;4969264;28;20502;-85
2022/09/09 06:51:42;;;;;;;5.20;2.67;;;16.20;99.90;;;16.88;100.00;97649.50;4966531;28;20572;-85
2022/09/09 06:54:12;;;;;;;7.50;2.60;;;16.20;99.90;;;16.93;100.00;97654.91;4970933;28;20467;-85
2022/09/09 06:56:45;;;;;;;6.37;2.40;;;16.20;99.90;;;16.94;100.00;97652.00;4970002;28;20463;-85
2022/09/09 06:59:15;;;;;;;4.83;2.20;;;16.30;99.90;;;16.94;100.00;97657.28;4968673;28;20488;-85
2022/09/09 07:01:45;;;;;;;5.90;2.57;;;16.30;99.90;;;16.96;100.00;97657.06;4967132;28;20480;-84
2022/09/09 07:04:17;;;;;;;12.33;2.73;;;16.20;99.90;;;16.96;100.00;97665.00;4965273;28;20464;-85
2022/09/09 07:06:47;;;;;;;15.03;2.03;;;16.30;99.90;;;17.00;100.00;97660.84;4964405;28;20453;-85
2022/09/09 07:09:17;;;;;;;7.70;3.00;;;16.40;99.90;;;17.01;100.00;97655.31;4963669;28;20881;-84
2022/09/09 07:11:51;;;;;;;11.00;2.23;;;16.30;99.90;;;17.00;100.00;97659.00;4962187;28;20924;-85
2022/09/09 07:14:22;;;;;;;10.50;2.40;;;16.20;99.90;;;17.05;100.00;97655.63;4965479;28;20445;-85
2022/09/09 07:16:50;;;;;;;7.97;2.70;;;16.30;99.90;;;17.07;100.00;97664.94;4961677;28;20456;-85
2022/09/09 07:19:24;;;;;;;6.50;2.43;;;16.40;99.90;;;17.10;100.00;97663.66;4963620;28;20597;-85
2022/09/09 07:21:53;;;;;;;4.60;1.87;;;16.40;99.90;;;17.11;100.00;97655.47;4963334;28;20958;-85
2022/09/09 07:24:21;;;;;;;5.73;2.50;;;16.50;99.90;;;17.13;100.00;97652.63;4964121;28;20828;-85
2022/09/09 07:26:51;;;;;;;8.60;2.17;;;16.50;99.90;;;17.11;100.00;97673.19;4964151;28;20470;-84
2022/09/09 07:29:22;;;;;;;10.07;2.10;;;16.40;99.90;;;17.09;100.00;97662.06;4973081;28;20949;-85
2022/09/09 07:31:51;;;;;;;13.13;2.30;;;16.40;99.90;;;17.11;100.00;97663.41;4977504;28;20456;-85
2022/09/09 07:34:20;;;;;;;7.30;2.60;;;16.40;99.90;;;17.12;100.00;97666.84;4977630;28;20534;-85
2022/09/09 07:36:50;;;;;;;4.60;1.80;;;16.50;99.90;;;17.09;100.00;97677.91;4978702;28;20456;-85
2022/09/09 07:39:20;;;;;;;6.33;2.30;;;16.50;99.90;;;17.08;100.00;97674.47;4974731;28;20492;-85
2022/09/09 07:41:50;;;;;;;8.97;2.20;;;16.50;99.90;;;17.08;100.00;97677.09;4976659;28;20893;-85
2022/09/09 07:44:24;;;;;;;5.77;2.10;;;16.50;99.90;;;17.07;100.00;97669.44;4977289;28;20535;-84
2022/09/09 07:46:53;;;;;;;6.83;2.10;;;16.50;99.90;;;17.06;100.00;97673.09;4978211;28;21001;-86
2022/09/09 07:49:22;;;;;;;12.47;2.43;;;16.50;99.90;;;17.00;100.00;97679.34;4977553;28;20467;-85
2022/09/09 07:51:58;;;;;;;6.73;2.53;;;16.50;99.90;;;16.97;100.00;97675.31;4977546;28;20451;-85
2022/09/09 07:54:27;;;;;;;8.13;2.30;;;16.50;99.90;;;16.95;100.00;97674.75;4979170;28;20558;-85
2022/09/09 07:56:56;;;;;;;7.63;1.80;;;16.40;99.90;;;16.94;100.00;97675.78;4978880;28;20560;-85
2022/09/09 07:59:26;;;;;;;6.63;2.10;;;16.40;99.90;;;16.96;100.00;97683.47;4976242;28;20495;-85
2022/09/09 08:01:55;;;;;;;5.57;1.80;;;16.40;99.90;;;16.95;100.00;97676.59;4962154;28;20508;-85
2022/09/09 08:04:27;;;;;;;8.33;2.00;;;16.40;99.90;;;16.96;100.00;97680.84;4964118;28;20456;-85
2022/09/09 08:06:59;;;;;;;4.23;2.00;;;16.40;99.90;;;16.95;100.00;97676.59;4965566;28;20453;-85
2022/09/09 08:09:29;;;;;;;4.83;2.10;;;16.40;99.90;;;16.96;100.00;97681.66;4964852;28;21043;-85
2022/09/09 08:11:59;;;;;;;5.77;1.60;;;16.40;99.90;;;16.98;100.00;97687.50;4965142;28;20477;-85
2022/09/09 08:14:29;;;;;;;3.70;1.70;;;16.30;99.90;;;16.97;100.00;97695.66;4966476;28;20450;-85
2022/09/09 08:16:58;;;;;;;8.57;2.00;;;16.40;99.90;;;16.98;100.00;97690.13;4964498;28;20947;-85
2022/09/09 08:19:29;;;;;;;8.70;1.93;;;16.30;99.90;;;17.03;100.00;97692.88;4965425;28;20583;-85
2022/09/09 08:21:59;;;;;;;4.13;1.63;;;16.30;99.90;;;17.12;100.00;97698.56;4965059;28;20505;-85
2022/09/09 08:24:29;;;;;;;6.83;2.00;;;16.30;99.90;;;17.16;100.00;97693.59;4966693;28;20446;-85
2022/09/09 08:26:59;;;;;;;7.40;1.90;;;16.40;99.90;;;17.18;100.00;97691.53;4966110;28;20452;-85
2022/09/09 08:29:29;;;;;;;5.60;1.70;;;16.40;99.90;;;17.16;100.00;97694.41;4965649;28;20461;-85
2022/09/09 08:31:59;;;;;;;4.27;1.73;;;16.50;99.90;;;17.22;100.00;97693.47;4965693;28;20460;-84
2022/09/09 08:34:30;;;;;;;4.33;1.60;;;16.60;99.90;;;17.27;100.00;97696.19;4965752;28;20469;-84
2022/09/09 08:36:58;;;;;;;5.37;1.93;;;16.50;99.90;;;17.30;100.00;97701.00;4969133;28;20488;-84
2022/09/09 08:39:27;;;;;;;3.00;1.50;;;16.70;99.90;;;17.35;100.00;97698.47;4970979;28;20595;-84
2022/09/09 08:42:35;;;;;;;3.73;1.33;;;16.70;99.90;;;17.43;100.00;97697.25;4968796;28;20478;-85
2022/09/09 08:45:32;;;;;;;6.57;1.83;;;16.70;99.90;;;17.49;100.00;97694.44;4972218;28;20469;-84
2022/09/09 08:48:35;;;;;;;10.10;2.20;;;16.80;99.90;;;17.53;100.00;97698.22;4965995;28;20516;-84
2022/09/09 08:51:07;;;;;;;4.30;1.50;;;16.80;99.90;;;17.53;100.00;97702.69;4964944;28;20604;-84
2022/09/09 08:53:44;;;;;;;5.80;1.57;;;16.80;99.90;;;17.56;100.00;97694.34;4965725;28;20543;-85
2022/09/09 08:56:19;;;;;;;6.40;1.60;;;16.90;99.90;;;17.59;100.00;97697.31;4965505;28;20473;-84
2022/09/09 08:58:52;;;;;;;6.53;1.40;;;16.90;99.90;;;17.62;100.00;97709.25;4965259;28;20586;-85
2022/09/09 09:01:46;;;;;;;4.43;1.57;;;17.10;99.90;;;17.55;100.00;97690.88;4979478;28;20479;-85
2022/09/09 09:04:43;;;;;;;6.63;1.63;;;16.80;99.90;;;17.66;100.00;97688.41;4979855;28;20465;-84
2022/09/09 09:07:32;;;;;;;8.30;1.60;;;16.90;99.90;;;17.67;100.00;97690.03;4980997;28;20542;-84
2022/09/09 09:10:13;;;;;;;3.83;1.17;;;16.90;99.90;;;17.69;100.00;97693.22;4978370;28;20495;-85
2022/09/09 09:13:04;;;;;;;5.87;1.70;;;17.00;99.90;;;17.68;100.00;97702.19;4980991;28;20432;-85
2022/09/09 09:15:38;;;;;;;3.97;1.63;;;16.90;99.90;;;17.74;100.00;97703.84;4982568;28;20595;-84
2022/09/09 09:18:15;;;;;;;6.27;1.53;;;17.00;99.90;;;17.79;100.00;97698.66;4980970;28;20475;-84
2022/09/09 09:20:59;;;;;;;7.87;2.27;;;17.00;99.90;;;17.85;100.00;97697.69;4979140;28;20582;-84
2022/09/09 09:23:39;;;;;;;10.33;1.83;;;17.10;99.90;;;17.95;100.00;97692.53;4979727;28;20531;-83
2022/09/09 09:26:11;;;;;;;11.13;2.07;;;17.20;99.90;;;18.05;100.00;97682.91;4976818;28;20524;-84
2022/09/09 09:28:41;;;;;;;5.83;1.80;;;17.40;99.90;;;18.17;100.00;97676.72;4975398;28;20466;-85
2022/09/09 09:31:13;;;;;;;14.83;1.70;;;17.50;99.90;;;18.19;100.00;97682.59;4970755;28;20547;-85
2022/09/09 09:33:52;;;;;;;6.50;2.37;;;17.50;99.90;;;18.15;100.00;97681.47;4979618;28;20551;-84
2022/09/09 09:36:27;;;;;;;9.93;1.90;;;17.40;99.90;;;18.04;100.00;97683.16;4979584;28;20463;-85
2022/09/09 09:38:59;;;;;;;5.50;1.50;;;17.30;99.90;;;17.99;100.00;97686.53;4977173;28;21065;-85
2022/09/09 09:41:49;;;;;;;9.27;2.07;;;17.30;99.90;;;18.04;100.00;97680.53;4975987;28;20470;-86
2022/09/09 09:44:27;;;;;;;5.90;2.00;;;17.40;99.90;;;18.16;100.00;97688.34;4977156;28;20553;-85
2022/09/09 09:47:09;;;;;;;5.90;1.60;;;17.40;99.90;;;18.17;100.00;97688.13;4969681;28;20564;-85
2022/09/09 09:49:39;;;;;;;5.13;1.80;;;17.40;99.90;;;18.18;100.00;97681.78;4965109;28;20552;-86
2022/09/09 09:52:18;;;;;;;8.20;1.90;;;17.60;99.90;;;18.19;100.00;97688.66;4964356;28;20467;-85
2022/09/09 09:54:47;;;;;;;14.43;2.50;;;17.60;99.90;;;18.21;100.00;97686.59;4963116;28;20468;-85
2022/09/09 09:57:18;;;;;;;11.13;1.87;;;17.60;99.90;;;18.18;100.00;97687.06;4963929;28;20453;-85
2022/09/09 09:59:47;;;;;;;7.67;1.70;;;17.50;99.90;;;18.28;100.00;97673.97;4964715;28;20489;-85
2022/09/09 10:02:24;;;;;;;4.80;2.17;;;17.70;99.90;;;18.26;100.00;97673.41;4964367;28;20548;-85
2022/09/09 10:05:05;;;;;;;8.33;1.50;;;17.70;99.90;;;18.30;100.00;97666.56;4963429;28;20476;-85
2022/09/09 10:07:34;;;;;;;5.53;1.57;;;17.80;99.90;;;18.27;100.00;97661.78;4963337;28;20453;-84
2022/09/09 10:10:03;;;;;;;12.70;1.70;;;17.70;99.90;;;18.21;100.00;97660.13;4966177;28;20544;-85
2022/09/09 10:12:52;;;;;;;8.20;2.13;;;17.60;99.90;;;18.29;100.00;97667.63;4963938;28;20468;-85
2022/09/09 10:15:40;;;;;;;3.90;1.57;;;17.70;99.90;;;18.36;100.00;97652.34;4963544;28;20462;-85
2022/09/09 10:18:36;;;;;;;4.83;1.63;;;17.70;99.90;;;18.38;100.00;97657.41;4963217;28;20481;-85
2022/09/09 10:21:25;;;;;;;7.07;2.00;;;17.80;99.90;;;18.41;100.00;97659.56;4961828;28;20505;-85
2022/09/09 10:24:33;;;;;;;8.10;1.50;;;17.70;99.90;;;18.46;100.00;97673.69;4967007;28;20539;-85
2022/09/09 10:27:12;;;;;;;7.50;1.60;;;17.80;99.90;;;18.46;100.00;97681.63;4966719;28;20467;-85
2022/09/09 10:30:08;;;;;;;10.80;1.70;;;17.90;99.90;;;18.35;100.00;97685.19;4963078;28;20457;-85
2022/09/09 10:32:47;;;;;;;5.57;1.37;;;17.60;99.90;;;18.39;100.00;97686.31;4963718;28;20504;-85
2022/09/09 10:35:34;;;;;;;4.37;1.73;;;17.80;99.90;;;18.31;100.00;97692.00;4963682;28;20489;-85
2022/09/09 10:38:18;;;;;;;5.50;1.70;;;17.70;99.90;;;18.26;100.00;97697.22;4963543;28;20529;-85
2022/09/09 10:41:19;;;;;;;2.63;1.10;;;17.70;99.90;;;18.13;100.00;97713.47;4962819;28;20579;-85
2022/09/09 10:44:21;;;;;;;5.97;1.80;;;17.60;99.90;;;18.15;100.00;97702.63;4962871;28;20460;-85